sensor_id;sensor_type;location;lat;lon;timestamp;temperature;humidity
65584;DHT22;62116;43.582;1.470;2022-12-29T00:00:01;10.67;87.35
65584;DHT22;62116;43.582;1.470;2022-12-29T00:02:26;10.65;87.43
65584;DHT22;62116;43.582;1.470;2022-12-29T00:04:52;10.67;87.38
65584;DHT22;62116;43.582;1.470;2022-12-29T00:07:18;10.66;87.35
65584;DHT22;62116;43.582;1.470;2022-12-29T00:09:43;10.69;87.15
65584;DHT22;62116;43.582;1.470;2022-12-29T00:12:09;10.72;86.99
65584;DHT22;62116;43.582;1.470;2022-12-29T00:14:34;10.70;86.91
65584;DHT22;62116;43.582;1.470;2022-12-29T00:17:18;10.70;86.82
65584;DHT22;62116;43.582;1.470;2022-12-29T00:19:43;10.73;86.82
65584;DHT22;62116;43.582;1.470;2022-12-29T00:22:27;10.70;86.73
65584;DHT22;62116;43.582;1.470;2022-12-29T00:25:12;10.73;86.69
65584;DHT22;62116;43.582;1.470;2022-12-29T00:27:56;10.72;86.65
65584;DHT22;62116;43.582;1.470;2022-12-29T00:30:40;10.69;86.60
65584;DHT22;62116;43.582;1.470;2022-12-29T00:33:32;10.72;86.43
65584;DHT22;62116;43.582;1.470;2022-12-29T00:36:27;10.72;86.28
65584;DHT22;62116;43.582;1.470;2022-12-29T00:38:57;10.70;86.18
65584;DHT22;62116;43.582;1.470;2022-12-29T00:41:43;10.69;86.26
65584;DHT22;62116;43.582;1.470;2022-12-29T00:44:27;10.69;85.97
65584;DHT22;62116;43.582;1.470;2022-12-29T00:46:52;10.67;85.92
65584;DHT22;62116;43.582;1.470;2022-12-29T00:49:17;10.67;85.77
65584;DHT22;62116;43.582;1.470;2022-12-29T00:52:12;10.70;85.62
65584;DHT22;62116;43.582;1.470;2022-12-29T00:54:40;10.67;85.62
65584;DHT22;62116;43.582;1.470;2022-12-29T00:57:07;10.65;85.66
65584;DHT22;62116;43.582;1.470;2022-12-29T00:59:38;10.67;85.70
65584;DHT22;62116;43.582;1.470;2022-12-29T01:02:04;10.67;85.79
65584;DHT22;62116;43.582;1.470;2022-12-29T01:04:30;10.65;85.80
65584;DHT22;62116;43.582;1.470;2022-12-29T01:06:55;10.65;85.92
65584;DHT22;62116;43.582;1.470;2022-12-29T01:09:21;10.63;85.99
65584;DHT22;62116;43.582;1.470;2022-12-29T01:12:06;10.67;85.97
65584;DHT22;62116;43.582;1.470;2022-12-29T01:14:32;10.65;86.02
65584;DHT22;62116;43.582;1.470;2022-12-29T01:16:58;10.66;85.87
65584;DHT22;62116;43.582;1.470;2022-12-29T01:19:24;10.66;85.81
65584;DHT22;62116;43.582;1.470;2022-12-29T01:21:50;10.66;85.77
65584;DHT22;62116;43.582;1.470;2022-12-29T01:24:17;10.65;85.59
65584;DHT22;62116;43.582;1.470;2022-12-29T01:26:43;10.65;85.69
65584;DHT22;62116;43.582;1.470;2022-12-29T01:29:08;10.62;85.66
65584;DHT22;62116;43.582;1.470;2022-12-29T01:31:35;10.63;85.59
65584;DHT22;62116;43.582;1.470;2022-12-29T01:34:00;10.62;85.60
65584;DHT22;62116;43.582;1.470;2022-12-29T01:36:25;10.59;85.66
65584;DHT22;62116;43.582;1.470;2022-12-29T01:38:51;10.63;85.68
65584;DHT22;62116;43.582;1.470;2022-12-29T01:41:17;10.62;85.66
65584;DHT22;62116;43.582;1.470;2022-12-29T01:43:50;10.60;85.74
65584;DHT22;62116;43.582;1.470;2022-12-29T01:46:40;10.62;85.71
65584;DHT22;62116;43.582;1.470;2022-12-29T01:51:52;10.57;85.90
65584;DHT22;62116;43.582;1.470;2022-12-29T01:54:37;10.57;86.07
65584;DHT22;62116;43.582;1.470;2022-12-29T01:57:08;10.56;86.19
65584;DHT22;62116;43.582;1.470;2022-12-29T01:59:40;10.55;86.23
65584;DHT22;62116;43.582;1.470;2022-12-29T02:02:08;10.55;86.16
65584;DHT22;62116;43.582;1.470;2022-12-29T02:04:34;10.53;86.10
65584;DHT22;62116;43.582;1.470;2022-12-29T02:07:03;10.55;86.20
65584;DHT22;62116;43.582;1.470;2022-12-29T02:09:29;10.55;86.15
65584;DHT22;62116;43.582;1.470;2022-12-29T02:11:56;10.55;86.19
65584;DHT22;62116;43.582;1.470;2022-12-29T02:14:23;10.56;86.11
65584;DHT22;62116;43.582;1.470;2022-12-29T02:17:07;10.55;86.20
65584;DHT22;62116;43.582;1.470;2022-12-29T02:25:24;10.56;86.24
65584;DHT22;62116;43.582;1.470;2022-12-29T02:33:30;10.59;86.31
65584;DHT22;62116;43.582;1.470;2022-12-29T02:41:19;10.59;86.33
65584;DHT22;62116;43.582;1.470;2022-12-29T02:43:59;10.63;86.34
65584;DHT22;62116;43.582;1.470;2022-12-29T02:46:35;10.62;86.31
65584;DHT22;62116;43.582;1.470;2022-12-29T02:49:15;10.60;86.44
65584;DHT22;62116;43.582;1.470;2022-12-29T02:54:32;10.63;86.41
65584;DHT22;62116;43.582;1.470;2022-12-29T02:59:49;10.67;86.56
65584;DHT22;62116;43.582;1.470;2022-12-29T03:11:02;10.72;86.63
65584;DHT22;62116;43.582;1.470;2022-12-29T03:13:49;10.72;86.70
65584;DHT22;62116;43.582;1.470;2022-12-29T03:16:44;10.73;86.70
65584;DHT22;62116;43.582;1.470;2022-12-29T03:19:30;10.76;86.95
65584;DHT22;62116;43.582;1.470;2022-12-29T03:22:01;10.80;87.04
65584;DHT22;62116;43.582;1.470;2022-12-29T03:24:47;10.79;87.18
65584;DHT22;62116;43.582;1.470;2022-12-29T03:27:18;10.80;87.29
65584;DHT22;62116;43.582;1.470;2022-12-29T03:29:55;10.77;87.39
65584;DHT22;62116;43.582;1.470;2022-12-29T03:32:29;10.79;87.43
65584;DHT22;62116;43.582;1.470;2022-12-29T03:34:56;10.80;87.48
65584;DHT22;62116;43.582;1.470;2022-12-29T03:37:30;10.83;87.57
65584;DHT22;62116;43.582;1.470;2022-12-29T03:39:56;10.80;87.55
65584;DHT22;62116;43.582;1.470;2022-12-29T03:42:25;10.86;87.55
65584;DHT22;62116;43.582;1.470;2022-12-29T03:44:56;10.84;87.60
65584;DHT22;62116;43.582;1.470;2022-12-29T03:47:22;10.86;87.67
65584;DHT22;62116;43.582;1.470;2022-12-29T03:49:48;10.87;87.62
65584;DHT22;62116;43.582;1.470;2022-12-29T03:52:14;10.89;87.64
65584;DHT22;62116;43.582;1.470;2022-12-29T03:54:39;10.90;87.69
65584;DHT22;62116;43.582;1.470;2022-12-29T03:57:05;10.93;87.60
65584;DHT22;62116;43.582;1.470;2022-12-29T03:59:30;10.96;87.61
65584;DHT22;62116;43.582;1.470;2022-12-29T04:01:55;10.96;87.57
65584;DHT22;62116;43.582;1.470;2022-12-29T04:04:21;10.95;87.62
65584;DHT22;62116;43.582;1.470;2022-12-29T04:06:46;10.97;87.60
65584;DHT22;62116;43.582;1.470;2022-12-29T04:09:12;11.00;87.50
65584;DHT22;62116;43.582;1.470;2022-12-29T04:11:37;11.03;87.43
65584;DHT22;62116;43.582;1.470;2022-12-29T04:14:03;11.04;87.51
65584;DHT22;62116;43.582;1.470;2022-12-29T04:16:28;11.03;87.36
65584;DHT22;62116;43.582;1.470;2022-12-29T04:18:53;11.09;87.26
65584;DHT22;62116;43.582;1.470;2022-12-29T04:21:19;11.09;87.28
65584;DHT22;62116;43.582;1.470;2022-12-29T04:23:44;11.07;87.24
65584;DHT22;62116;43.582;1.470;2022-12-29T04:26:10;11.09;87.24
65584;DHT22;62116;43.582;1.470;2022-12-29T04:28:36;11.07;87.24
65584;DHT22;62116;43.582;1.470;2022-12-29T04:31:03;11.09;87.27
65584;DHT22;62116;43.582;1.470;2022-12-29T04:33:29;11.09;87.20
65584;DHT22;62116;43.582;1.470;2022-12-29T04:35:54;11.10;87.19
65584;DHT22;62116;43.582;1.470;2022-12-29T04:38:21;11.11;87.19
65584;DHT22;62116;43.582;1.470;2022-12-29T04:40:47;11.11;87.22
65584;DHT22;62116;43.582;1.470;2022-12-29T04:43:13;11.10;87.28
65584;DHT22;62116;43.582;1.470;2022-12-29T04:45:42;11.09;87.31
65584;DHT22;62116;43.582;1.470;2022-12-29T04:48:08;11.09;87.28
65584;DHT22;62116;43.582;1.470;2022-12-29T04:50:33;11.10;87.32
65584;DHT22;62116;43.582;1.470;2022-12-29T04:52:59;11.11;87.30
65584;DHT22;62116;43.582;1.470;2022-12-29T04:55:24;11.14;87.35
65584;DHT22;62116;43.582;1.470;2022-12-29T04:57:49;11.17;87.42
65584;DHT22;62116;43.582;1.470;2022-12-29T05:00:15;11.19;87.38
65584;DHT22;62116;43.582;1.470;2022-12-29T05:02:40;11.19;87.36
65584;DHT22;62116;43.582;1.470;2022-12-29T05:05:06;11.21;87.42
65584;DHT22;62116;43.582;1.470;2022-12-29T05:07:31;11.23;87.41
65584;DHT22;62116;43.582;1.470;2022-12-29T05:09:59;11.27;87.50
65584;DHT22;62116;43.582;1.470;2022-12-29T05:12:24;11.28;87.59
65584;DHT22;62116;43.582;1.470;2022-12-29T05:14:49;11.28;87.71
65584;DHT22;62116;43.582;1.470;2022-12-29T05:17:15;11.33;87.70
65584;DHT22;62116;43.582;1.470;2022-12-29T05:19:40;11.35;87.70
65584;DHT22;62116;43.582;1.470;2022-12-29T05:22:06;11.37;87.73
65584;DHT22;62116;43.582;1.470;2022-12-29T05:24:31;11.38;87.77
65584;DHT22;62116;43.582;1.470;2022-12-29T05:26:56;11.37;87.84
65584;DHT22;62116;43.582;1.470;2022-12-29T05:29:22;11.40;87.75
65584;DHT22;62116;43.582;1.470;2022-12-29T05:31:47;11.41;87.83
65584;DHT22;62116;43.582;1.470;2022-12-29T05:34:12;11.40;87.88
65584;DHT22;62116;43.582;1.470;2022-12-29T05:36:39;11.42;87.86
65584;DHT22;62116;43.582;1.470;2022-12-29T05:39:05;11.42;87.85
65584;DHT22;62116;43.582;1.470;2022-12-29T05:41:32;11.44;87.79
65584;DHT22;62116;43.582;1.470;2022-12-29T05:43:58;11.45;87.76
65584;DHT22;62116;43.582;1.470;2022-12-29T05:46:23;11.42;87.76
65584;DHT22;62116;43.582;1.470;2022-12-29T05:48:48;11.40;87.84
65584;DHT22;62116;43.582;1.470;2022-12-29T05:51:14;11.45;87.70
65584;DHT22;62116;43.582;1.470;2022-12-29T05:53:39;11.41;87.78
65584;DHT22;62116;43.582;1.470;2022-12-29T05:56:05;11.45;87.69
65584;DHT22;62116;43.582;1.470;2022-12-29T05:58:30;11.44;87.71
65584;DHT22;62116;43.582;1.470;2022-12-29T06:00:56;11.44;87.65
65584;DHT22;62116;43.582;1.470;2022-12-29T06:03:21;11.47;87.60
65584;DHT22;62116;43.582;1.470;2022-12-29T06:05:46;11.45;87.60
65584;DHT22;62116;43.582;1.470;2022-12-29T06:08:12;11.42;87.55
65584;DHT22;62116;43.582;1.470;2022-12-29T06:10:37;11.41;87.64
65584;DHT22;62116;43.582;1.470;2022-12-29T06:13:03;11.44;87.58
65584;DHT22;62116;43.582;1.470;2022-12-29T06:15:33;11.42;87.58
65584;DHT22;62116;43.582;1.470;2022-12-29T06:17:59;11.44;87.51
65584;DHT22;62116;43.582;1.470;2022-12-29T06:20:24;11.41;87.56
65584;DHT22;62116;43.582;1.470;2022-12-29T06:22:50;11.38;87.68
65584;DHT22;62116;43.582;1.470;2022-12-29T06:25:15;11.38;87.68
65584;DHT22;62116;43.582;1.470;2022-12-29T06:27:41;11.41;87.67
65584;DHT22;62116;43.582;1.470;2022-12-29T06:30:07;11.38;87.58
65584;DHT22;62116;43.582;1.470;2022-12-29T06:32:34;11.37;87.62
65584;DHT22;62116;43.582;1.470;2022-12-29T06:35:00;11.35;87.62
65584;DHT22;62116;43.582;1.470;2022-12-29T06:37:26;11.34;87.61
65584;DHT22;62116;43.582;1.470;2022-12-29T06:39:51;11.33;87.65
65584;DHT22;62116;43.582;1.470;2022-12-29T06:42:17;11.30;87.77
65584;DHT22;62116;43.582;1.470;2022-12-29T06:44:42;11.30;87.80
65584;DHT22;62116;43.582;1.470;2022-12-29T06:47:08;11.27;87.89
65584;DHT22;62116;43.582;1.470;2022-12-29T06:49:33;11.26;87.96
65584;DHT22;62116;43.582;1.470;2022-12-29T06:51:58;11.24;87.91
65584;DHT22;62116;43.582;1.470;2022-12-29T06:54:26;11.23;87.87
65584;DHT22;62116;43.582;1.470;2022-12-29T06:56:51;11.24;87.88
65584;DHT22;62116;43.582;1.470;2022-12-29T06:59:17;11.21;88.00
65584;DHT22;62116;43.582;1.470;2022-12-29T07:01:42;11.21;88.06
65584;DHT22;62116;43.582;1.470;2022-12-29T07:04:07;11.19;88.08
65584;DHT22;62116;43.582;1.470;2022-12-29T07:06:33;11.19;88.16
65584;DHT22;62116;43.582;1.470;2022-12-29T07:08:58;11.19;88.22
65584;DHT22;62116;43.582;1.470;2022-12-29T07:11:24;11.20;88.15
65584;DHT22;62116;43.582;1.470;2022-12-29T07:13:49;11.19;88.23
65584;DHT22;62116;43.582;1.470;2022-12-29T07:16:15;11.17;88.39
65584;DHT22;62116;43.582;1.470;2022-12-29T07:18:41;11.20;88.32
65584;DHT22;62116;43.582;1.470;2022-12-29T07:21:06;11.19;88.38
65584;DHT22;62116;43.582;1.470;2022-12-29T07:23:32;11.20;88.39
65584;DHT22;62116;43.582;1.470;2022-12-29T07:26:10;11.19;88.42
65584;DHT22;62116;43.582;1.470;2022-12-29T07:28:36;11.20;88.41
65584;DHT22;62116;43.582;1.470;2022-12-29T07:31:03;11.20;88.38
65584;DHT22;62116;43.582;1.470;2022-12-29T07:33:28;11.24;88.28
65584;DHT22;62116;43.582;1.470;2022-12-29T07:35:54;11.21;88.32
65584;DHT22;62116;43.582;1.470;2022-12-29T07:38:19;11.20;88.39
65584;DHT22;62116;43.582;1.470;2022-12-29T07:40:45;11.23;88.38
65584;DHT22;62116;43.582;1.470;2022-12-29T07:43:10;11.23;88.34
65584;DHT22;62116;43.582;1.470;2022-12-29T07:45:36;11.26;88.18
65584;DHT22;62116;43.582;1.470;2022-12-29T07:48:01;11.26;88.15
65584;DHT22;62116;43.582;1.470;2022-12-29T07:50:28;11.27;88.20
65584;DHT22;62116;43.582;1.470;2022-12-29T07:52:53;11.26;88.18
65584;DHT22;62116;43.582;1.470;2022-12-29T07:55:19;11.28;88.18
65584;DHT22;62116;43.582;1.470;2022-12-29T07:57:44;11.28;88.27
65584;DHT22;62116;43.582;1.470;2022-12-29T08:00:10;11.28;88.18
65584;DHT22;62116;43.582;1.470;2022-12-29T08:02:36;11.27;88.29
65584;DHT22;62116;43.582;1.470;2022-12-29T08:05:01;11.31;88.24
65584;DHT22;62116;43.582;1.470;2022-12-29T08:07:27;11.37;88.12
65584;DHT22;62116;43.582;1.470;2022-12-29T08:09:53;11.34;88.19
65584;DHT22;62116;43.582;1.470;2022-12-29T08:12:18;11.35;88.25
65584;DHT22;62116;43.582;1.470;2022-12-29T08:14:43;11.34;88.26
65584;DHT22;62116;43.582;1.470;2022-12-29T08:17:09;11.37;88.27
65584;DHT22;62116;43.582;1.470;2022-12-29T08:19:35;11.38;88.21
65584;DHT22;62116;43.582;1.470;2022-12-29T08:22:01;11.45;88.13
65584;DHT22;62116;43.582;1.470;2022-12-29T08:24:26;11.42;88.09
65584;DHT22;62116;43.582;1.470;2022-12-29T08:26:52;11.44;88.08
65584;DHT22;62116;43.582;1.470;2022-12-29T08:29:17;11.50;87.98
65584;DHT22;62116;43.582;1.470;2022-12-29T08:31:43;11.51;87.92
65584;DHT22;62116;43.582;1.470;2022-12-29T08:34:08;11.57;87.81
65584;DHT22;62116;43.582;1.470;2022-12-29T08:36:33;11.57;87.71
65584;DHT22;62116;43.582;1.470;2022-12-29T08:38:59;11.62;87.61
65584;DHT22;62116;43.582;1.470;2022-12-29T08:41:24;11.65;87.41
65584;DHT22;62116;43.582;1.470;2022-12-29T08:43:50;11.68;87.33
65584;DHT22;62116;43.582;1.470;2022-12-29T08:46:16;11.72;87.22
65584;DHT22;62116;43.582;1.470;2022-12-29T08:48:41;11.74;87.12
65584;DHT22;62116;43.582;1.470;2022-12-29T08:51:07;11.77;87.05
65584;DHT22;62116;43.582;1.470;2022-12-29T08:53:33;11.79;87.00
65584;DHT22;62116;43.582;1.470;2022-12-29T08:55:59;11.81;86.84
65584;DHT22;62116;43.582;1.470;2022-12-29T08:58:26;11.84;86.85
65584;DHT22;62116;43.582;1.470;2022-12-29T09:00:56;11.85;86.69
65584;DHT22;62116;43.582;1.470;2022-12-29T09:03:23;11.86;86.60
65584;DHT22;62116;43.582;1.470;2022-12-29T09:05:53;11.89;86.54
65584;DHT22;62116;43.582;1.470;2022-12-29T09:08:19;11.95;86.42
65584;DHT22;62116;43.582;1.470;2022-12-29T09:10:45;11.99;86.26
65584;DHT22;62116;43.582;1.470;2022-12-29T09:13:12;11.99;86.19
65584;DHT22;62116;43.582;1.470;2022-12-29T09:15:38;12.08;86.00
65584;DHT22;62116;43.582;1.470;2022-12-29T09:18:04;12.15;85.79
65584;DHT22;62116;43.582;1.470;2022-12-29T09:20:30;12.19;85.70
65584;DHT22;62116;43.582;1.470;2022-12-29T09:22:55;12.26;85.46
65584;DHT22;62116;43.582;1.470;2022-12-29T09:25:21;12.35;85.23
65584;DHT22;62116;43.582;1.470;2022-12-29T09:27:50;12.38;85.04
65584;DHT22;62116;43.582;1.470;2022-12-29T09:30:17;12.43;84.96
65584;DHT22;62116;43.582;1.470;2022-12-29T09:32:43;12.49;84.77
65584;DHT22;62116;43.582;1.470;2022-12-29T09:35:08;12.56;84.72
65584;DHT22;62116;43.582;1.470;2022-12-29T09:37:34;12.61;84.33
65584;DHT22;62116;43.582;1.470;2022-12-29T09:39:59;12.67;84.13
65584;DHT22;62116;43.582;1.470;2022-12-29T09:42:52;12.60;84.21
65584;DHT22;62116;43.582;1.470;2022-12-29T09:47:51;12.61;84.18
65584;DHT22;62116;43.582;1.470;2022-12-29T09:50:29;12.61;84.17
65584;DHT22;62116;43.582;1.470;2022-12-29T09:53:09;12.61;84.29
65584;DHT22;62116;43.582;1.470;2022-12-29T09:55:41;12.63;84.35
65584;DHT22;62116;43.582;1.470;2022-12-29T09:58:15;12.64;84.39
65584;DHT22;62116;43.582;1.470;2022-12-29T10:00:52;12.64;84.26
65584;DHT22;62116;43.582;1.470;2022-12-29T10:03:20;12.61;84.39
65584;DHT22;62116;43.582;1.470;2022-12-29T10:05:51;12.66;84.42
65584;DHT22;62116;43.582;1.470;2022-12-29T10:08:44;12.67;84.20
65584;DHT22;62116;43.582;1.470;2022-12-29T10:18:54;12.81;83.90
65584;DHT22;62116;43.582;1.470;2022-12-29T10:24:21;12.90;83.00
65584;DHT22;62116;43.582;1.470;2022-12-29T10:26:48;12.96;83.06
65584;DHT22;62116;43.582;1.470;2022-12-29T10:29:19;13.08;82.43
65584;DHT22;62116;43.582;1.470;2022-12-29T10:31:49;13.13;82.32
65584;DHT22;62116;43.582;1.470;2022-12-29T10:34:25;13.18;82.20
65584;DHT22;62116;43.582;1.470;2022-12-29T10:37:01;13.20;81.86
65584;DHT22;62116;43.582;1.470;2022-12-29T10:39:37;13.25;81.50
65584;DHT22;62116;43.582;1.470;2022-12-29T10:42:35;13.23;81.34
65584;DHT22;62116;43.582;1.470;2022-12-29T10:45:03;13.31;81.07
65584;DHT22;62116;43.582;1.470;2022-12-29T10:47:32;13.31;81.09
65584;DHT22;62116;43.582;1.470;2022-12-29T10:50:01;13.30;81.15
65584;DHT22;62116;43.582;1.470;2022-12-29T10:52:27;13.27;81.35
65584;DHT22;62116;43.582;1.470;2022-12-29T10:55:18;13.25;81.31
65584;DHT22;62116;43.582;1.470;2022-12-29T10:57:45;13.21;81.14
65584;DHT22;62116;43.582;1.470;2022-12-29T11:00:19;13.21;81.15
65584;DHT22;62116;43.582;1.470;2022-12-29T11:08:27;13.14;81.16
65584;DHT22;62116;43.582;1.470;2022-12-29T11:11:01;13.17;81.31
65584;DHT22;62116;43.582;1.470;2022-12-29T11:13:29;13.17;81.13
65584;DHT22;62116;43.582;1.470;2022-12-29T11:15:56;13.15;81.01
65584;DHT22;62116;43.582;1.470;2022-12-29T11:18:34;13.20;81.07
65584;DHT22;62116;43.582;1.470;2022-12-29T11:21:05;13.24;81.01
65584;DHT22;62116;43.582;1.470;2022-12-29T11:23:40;13.33;80.87
65584;DHT22;62116;43.582;1.470;2022-12-29T11:28:30;13.51;80.17
65584;DHT22;62116;43.582;1.470;2022-12-29T11:31:02;13.68;79.59
65584;DHT22;62116;43.582;1.470;2022-12-29T11:33:29;13.71;79.86
65584;DHT22;62116;43.582;1.470;2022-12-29T11:36:05;13.79;79.50
65584;DHT22;62116;43.582;1.470;2022-12-29T11:38:35;13.92;79.37
65584;DHT22;62116;43.582;1.470;2022-12-29T11:41:02;13.97;79.21
65584;DHT22;62116;43.582;1.470;2022-12-29T11:43:36;14.04;79.15
65584;DHT22;62116;43.582;1.470;2022-12-29T11:46:02;14.05;78.66
65584;DHT22;62116;43.582;1.470;2022-12-29T11:48:33;14.12;78.64
65584;DHT22;62116;43.582;1.470;2022-12-29T11:51:03;14.10;78.00
65584;DHT22;62116;43.582;1.470;2022-12-29T11:56:06;14.09;77.89
65584;DHT22;62116;43.582;1.470;2022-12-29T11:58:34;14.13;77.87
65584;DHT22;62116;43.582;1.470;2022-12-29T12:01:20;14.16;77.72
65584;DHT22;62116;43.582;1.470;2022-12-29T12:04:10;14.22;77.25
65584;DHT22;62116;43.582;1.470;2022-12-29T12:06:43;14.30;77.36
65584;DHT22;62116;43.582;1.470;2022-12-29T12:09:16;14.37;77.25
65584;DHT22;62116;43.582;1.470;2022-12-29T12:11:44;14.37;76.77
65584;DHT22;62116;43.582;1.470;2022-12-29T12:14:41;14.42;76.84
65584;DHT22;62116;43.582;1.470;2022-12-29T12:17:15;14.46;76.75
65584;DHT22;62116;43.582;1.470;2022-12-29T12:19:44;14.53;76.63
65584;DHT22;62116;43.582;1.470;2022-12-29T12:22:35;14.55;76.03
65584;DHT22;62116;43.582;1.470;2022-12-29T12:25:24;14.57;76.62
65584;DHT22;62116;43.582;1.470;2022-12-29T12:30:22;14.55;76.41
65584;DHT22;62116;43.582;1.470;2022-12-29T12:33:02;14.56;76.02
65584;DHT22;62116;43.582;1.470;2022-12-29T12:35:32;14.52;76.61
65584;DHT22;62116;43.582;1.470;2022-12-29T12:43:31;14.50;76.43
65584;DHT22;62116;43.582;1.470;2022-12-29T12:51:33;14.59;76.39
65584;DHT22;62116;43.582;1.470;2022-12-29T12:54:04;14.59;76.26
65584;DHT22;62116;43.582;1.470;2022-12-29T12:59:52;14.59;75.89
65584;DHT22;62116;43.582;1.470;2022-12-29T13:07:59;14.52;76.17
65584;DHT22;62116;43.582;1.470;2022-12-29T13:13:32;14.50;76.56
65584;DHT22;62116;43.582;1.470;2022-12-29T13:16:11;14.47;76.84
65584;DHT22;62116;43.582;1.470;2022-12-29T13:22:13;14.44;77.33
65584;DHT22;62116;43.582;1.470;2022-12-29T13:24:21;14.37;77.54
65584;DHT22;62116;43.582;1.470;2022-12-29T13:26:52;14.36;77.97
65584;DHT22;62116;43.582;1.470;2022-12-29T13:37:15;14.37;78.35
65584;DHT22;62116;43.582;1.470;2022-12-29T13:39:49;14.37;78.09
65584;DHT22;62116;43.582;1.470;2022-12-29T13:42:18;14.33;78.10
65584;DHT22;62116;43.582;1.470;2022-12-29T13:44:48;14.33;77.95
65584;DHT22;62116;43.582;1.470;2022-12-29T13:47:29;14.34;77.66
65584;DHT22;62116;43.582;1.470;2022-12-29T13:49:57;14.33;77.84
65584;DHT22;62116;43.582;1.470;2022-12-29T13:52:49;14.30;78.02
65584;DHT22;62116;43.582;1.470;2022-12-29T14:00:58;14.32;78.08
65584;DHT22;62116;43.582;1.470;2022-12-29T14:03:46;14.30;78.30
65584;DHT22;62116;43.582;1.470;2022-12-29T14:08:46;14.34;78.17
65584;DHT22;62116;43.582;1.470;2022-12-29T14:11:15;14.33;78.21
65584;DHT22;62116;43.582;1.470;2022-12-29T14:13:43;14.37;78.41
65584;DHT22;62116;43.582;1.470;2022-12-29T14:16:33;14.39;78.41
65584;DHT22;62116;43.582;1.470;2022-12-29T14:19:12;14.36;78.35
65584;DHT22;62116;43.582;1.470;2022-12-29T14:21:39;14.43;78.34
65584;DHT22;62116;43.582;1.470;2022-12-29T14:34:59;14.40;77.67
65584;DHT22;62116;43.582;1.470;2022-12-29T14:42:48;14.37;77.83
65584;DHT22;62116;43.582;1.470;2022-12-29T14:47:41;14.40;77.60
65584;DHT22;62116;43.582;1.470;2022-12-29T14:52:55;14.36;77.85
65584;DHT22;62116;43.582;1.470;2022-12-29T14:55:36;14.32;78.16
65584;DHT22;62116;43.582;1.470;2022-12-29T14:58:06;14.33;78.16
65584;DHT22;62116;43.582;1.470;2022-12-29T15:00:35;14.30;78.40
65584;DHT22;62116;43.582;1.470;2022-12-29T15:08:09;14.28;77.51
65584;DHT22;62116;43.582;1.470;2022-12-29T15:10:43;14.18;77.65
65584;DHT22;62116;43.582;1.470;2022-12-29T15:13:22;14.16;77.93
65584;DHT22;62116;43.582;1.470;2022-12-29T15:15:47;14.16;78.17
65584;DHT22;62116;43.582;1.470;2022-12-29T15:20:39;14.08;78.79
65584;DHT22;62116;43.582;1.470;2022-12-29T15:23:11;14.08;78.90
65584;DHT22;62116;43.582;1.470;2022-12-29T15:28:20;14.05;79.01
65584;DHT22;62116;43.582;1.470;2022-12-29T15:30:53;14.05;79.04
65584;DHT22;62116;43.582;1.470;2022-12-29T15:33:20;14.04;79.01
65584;DHT22;62116;43.582;1.470;2022-12-29T15:35:50;14.02;78.91
65584;DHT22;62116;43.582;1.470;2022-12-29T15:38:22;13.99;79.05
65584;DHT22;62116;43.582;1.470;2022-12-29T15:40:52;13.97;79.20
65584;DHT22;62116;43.582;1.470;2022-12-29T15:45:50;13.94;79.57
65584;DHT22;62116;43.582;1.470;2022-12-29T15:48:22;13.94;79.76
65584;DHT22;62116;43.582;1.470;2022-12-29T15:50:48;13.94;79.59
65584;DHT22;62116;43.582;1.470;2022-12-29T15:53:32;13.92;79.77
65584;DHT22;62116;43.582;1.470;2022-12-29T15:56:07;13.94;79.87
65584;DHT22;62116;43.582;1.470;2022-12-29T15:58:48;13.89;80.14
65584;DHT22;62116;43.582;1.470;2022-12-29T16:03:51;13.89;80.36
65584;DHT22;62116;43.582;1.470;2022-12-29T16:06:36;13.85;80.37
65584;DHT22;62116;43.582;1.470;2022-12-29T16:09:07;13.85;79.94
65584;DHT22;62116;43.582;1.470;2022-12-29T16:11:43;13.83;80.18
65584;DHT22;62116;43.582;1.470;2022-12-29T16:14:15;13.83;80.21
65584;DHT22;62116;43.582;1.470;2022-12-29T16:16:43;13.83;80.31
65584;DHT22;62116;43.582;1.470;2022-12-29T16:19:18;13.81;81.06
65584;DHT22;62116;43.582;1.470;2022-12-29T16:21:44;13.81;81.35
65584;DHT22;62116;43.582;1.470;2022-12-29T16:24:16;13.81;81.73
65584;DHT22;62116;43.582;1.470;2022-12-29T16:27:07;13.82;81.63
65584;DHT22;62116;43.582;1.470;2022-12-29T16:29:33;13.82;81.76
65584;DHT22;62116;43.582;1.470;2022-12-29T16:32:00;13.81;82.26
65584;DHT22;62116;43.582;1.470;2022-12-29T16:34:31;13.81;82.86
65584;DHT22;62116;43.582;1.470;2022-12-29T16:37:30;13.78;83.33
65584;DHT22;62116;43.582;1.470;2022-12-29T16:39:56;13.77;83.86
65584;DHT22;62116;43.582;1.470;2022-12-29T16:42:35;13.79;84.08
65584;DHT22;62116;43.582;1.470;2022-12-29T16:50:31;13.65;84.73
65584;DHT22;62116;43.582;1.470;2022-12-29T16:52:58;13.62;84.94
65584;DHT22;62116;43.582;1.470;2022-12-29T16:55:23;13.61;84.58
65584;DHT22;62116;43.582;1.470;2022-12-29T16:57:52;13.61;84.57
65584;DHT22;62116;43.582;1.470;2022-12-29T17:00:23;13.58;84.49
65584;DHT22;62116;43.582;1.470;2022-12-29T17:02:50;13.54;84.71
65584;DHT22;62116;43.582;1.470;2022-12-29T17:05:18;13.50;85.39
65584;DHT22;62116;43.582;1.470;2022-12-29T17:07:44;13.48;85.62
65584;DHT22;62116;43.582;1.470;2022-12-29T17:10:10;13.48;85.78
65584;DHT22;62116;43.582;1.470;2022-12-29T17:12:37;13.51;85.92
65584;DHT22;62116;43.582;1.470;2022-12-29T17:15:24;13.47;86.23
65584;DHT22;62116;43.582;1.470;2022-12-29T17:17:53;13.48;86.39
65584;DHT22;62116;43.582;1.470;2022-12-29T17:20:23;13.48;86.58
65584;DHT22;62116;43.582;1.470;2022-12-29T17:22:50;13.47;86.30
65584;DHT22;62116;43.582;1.470;2022-12-29T17:25:19;13.41;84.94
65584;DHT22;62116;43.582;1.470;2022-12-29T17:27:47;13.35;84.79
65584;DHT22;62116;43.582;1.470;2022-12-29T17:30:17;13.31;84.43
65584;DHT22;62116;43.582;1.470;2022-12-29T17:32:49;13.30;83.32
65584;DHT22;62116;43.582;1.470;2022-12-29T17:35:17;13.24;82.41
65584;DHT22;62116;43.582;1.470;2022-12-29T17:37:43;13.20;82.34
65584;DHT22;62116;43.582;1.470;2022-12-29T17:40:14;13.14;82.52
65584;DHT22;62116;43.582;1.470;2022-12-29T17:42:45;13.06;82.27
65584;DHT22;62116;43.582;1.470;2022-12-29T17:45:13;13.03;82.42
65584;DHT22;62116;43.582;1.470;2022-12-29T17:47:40;13.01;82.58
65584;DHT22;62116;43.582;1.470;2022-12-29T17:50:08;12.97;82.63
65584;DHT22;62116;43.582;1.470;2022-12-29T17:52:34;12.93;82.97
65584;DHT22;62116;43.582;1.470;2022-12-29T17:55:00;12.91;82.98
65584;DHT22;62116;43.582;1.470;2022-12-29T17:57:25;12.86;83.39
65584;DHT22;62116;43.582;1.470;2022-12-29T17:59:50;12.83;83.12
65584;DHT22;62116;43.582;1.470;2022-12-29T18:02:25;12.84;83.35
65584;DHT22;62116;43.582;1.470;2022-12-29T18:04:52;12.79;83.70
65584;DHT22;62116;43.582;1.470;2022-12-29T18:07:17;12.76;83.80
65584;DHT22;62116;43.582;1.470;2022-12-29T18:09:43;12.73;83.17